Time;durP1;ratioP1;P1;durP2;ratioP2;P2;SDS_P1;SDS_P2;PMS_P1;PMS_P2;Temp;Humidity;BMP_temperature;BMP_pressure;BME280_temperature;BME280_humidity;BME280_pressure;Samples;Min_cycle;Max_cycle;Signal;HPM_P1;HPM_P2
2021/03/07 00:00:57;;;;;;;10.98;5.60;;;;;;;-3.26;69.44;97666.45;1750757;80;21679;-85
2021/03/07 00:03:24;;;;;;;18.67;7.55;;;;;;;-3.24;69.36;97662.39;1744537;82;21083;-85
2021/03/07 00:05:51;;;;;;;11.10;6.58;;;;;;;-3.25;69.31;97664.66;1753235;81;21523;-85
2021/03/07 00:08:18;;;;;;;14.23;8.98;;;;;;;-3.25;69.29;97669.36;1772688;80;21144;-85
2021/03/07 00:10:45;;;;;;;13.93;8.63;;;;;;;-3.27;69.33;97663.54;1768161;80;22133;-84
2021/03/07 00:13:12;;;;;;;12.65;7.42;;;;;;;-3.27;69.27;97660.14;1774156;80;21463;-85
2021/03/07 00:15:40;;;;;;;13.45;7.67;;;;;;;-3.26;69.25;97655.27;1767776;80;21096;-84
2021/03/07 00:18:07;;;;;;;11.43;7.47;;;;;;;-3.22;69.13;97661.28;1768162;80;21132;-84
2021/03/07 00:20:34;;;;;;;12.43;6.15;;;;;;;-3.16;69.01;97655.91;1771470;80;21112;-84
2021/03/07 00:23:01;;;;;;;12.15;6.40;;;;;;;-3.14;68.91;97659.95;1778938;80;21154;-84
2021/03/07 00:25:28;;;;;;;12.78;6.80;;;;;;;-3.07;68.71;97657.52;1766217;81;21486;-85
2021/03/07 00:27:55;;;;;;;11.50;6.58;;;;;;;-3.01;68.62;97649.05;1767831;81;21084;-84
2021/03/07 00:30:22;;;;;;;18.70;8.15;;;;;;;-3.03;68.53;97653.12;1702694;84;21131;-85
2021/03/07 00:32:49;;;;;;;14.13;6.85;;;;;;;-3.06;68.56;97641.78;1716393;82;21172;-83
2021/03/07 00:35:16;;;;;;;15.48;8.38;;;;;;;-3.08;68.52;97648.12;1724958;82;21283;-82
2021/03/07 00:37:43;;;;;;;16.15;7.17;;;;;;;-3.13;68.65;97638.22;1728310;82;21642;-82
2021/03/07 00:40:13;;;;;;;12.47;7.33;;;;;;;-3.17;68.67;97636.14;1724016;83;21153;-83
2021/03/07 00:42:45;;;;;;;10.13;5.17;;;;;;;-3.23;68.71;97626.44;1728452;82;21138;-82
2021/03/07 00:45:16;;;;;;;16.00;7.75;;;;;;;-3.25;68.73;97616.20;1768178;81;21114;-82
2021/03/07 00:47:44;;;;;;;12.07;5.90;;;;;;;-3.24;68.70;97620.42;1768266;80;21113;-82
2021/03/07 00:50:24;;;;;;;13.38;7.20;;;;;;;-3.25;68.72;97607.13;1768238;81;21144;-82
2021/03/07 00:52:52;;;;;;;15.43;8.73;;;;;;;-3.30;68.82;97606.84;1703119;83;21276;-82
2021/03/07 00:55:19;;;;;;;14.90;8.88;;;;;;;-3.34;68.90;97593.41;1725416;83;21840;-82
2021/03/07 00:57:46;;;;;;;15.18;8.60;;;;;;;-3.38;69.02;97587.40;1720105;83;21503;-83
2021/03/07 01:00:21;;;;;;;10.82;7.12;;;;;;;-3.39;69.14;97580.59;1774920;80;21109;-83
2021/03/07 01:02:48;;;;;;;14.28;7.83;;;;;;;-3.41;69.22;97573.48;1755491;80;21509;-83
2021/03/07 01:05:15;;;;;;;18.02;8.53;;;;;;;-3.47;69.41;97572.86;1746791;81;21136;-83
2021/03/07 01:07:43;;;;;;;15.03;6.75;;;;;;;-3.51;69.45;97574.17;1695236;83;21162;-83
2021/03/07 01:10:18;;;;;;;21.05;8.58;;;;;;;-3.55;69.80;97571.57;1720571;83;21143;-83
2021/03/07 01:12:49;;;;;;;12.93;6.80;;;;;;;-3.60;69.99;97561.22;1704622;83;21123;-83
2021/03/07 01:15:21;;;;;;;10.20;5.17;;;;;;;-3.66;70.23;97563.65;1754754;81;21128;-83
2021/03/07 01:17:49;;;;;;;10.08;6.72;;;;;;;-3.69;70.27;97547.95;1761171;81;21398;-83
2021/03/07 01:20:19;;;;;;;10.78;5.72;;;;;;;-3.66;70.31;97546.80;1712484;83;21116;-83
2021/03/07 01:22:46;;;;;;;7.70;5.72;;;;;;;-3.67;70.26;97536.12;1714504;82;21169;-83
2021/03/07 01:25:14;;;;;;;14.65;7.60;;;;;;;-3.68;70.20;97538.39;1730416;82;21519;-83
2021/03/07 01:27:41;;;;;;;9.13;5.30;;;;;;;-3.70;70.12;97531.28;1723780;82;22395;-83
2021/03/07 01:30:11;;;;;;;11.03;6.12;;;;;;;-3.69;70.22;97530.30;1715248;82;21488;-83
2021/03/07 01:32:38;;;;;;;14.05;7.90;;;;;;;-3.69;70.18;97528.52;1718954;82;21543;-83
2021/03/07 01:35:07;;;;;;;14.47;8.38;;;;;;;-3.66;70.31;97512.66;1716668;82;21176;-83
2021/03/07 01:37:34;;;;;;;6.65;4.90;;;;;;;-3.68;70.32;97513.29;1718444;83;21529;-83
2021/03/07 01:40:08;;;;;;;10.48;7.12;;;;;;;-3.69;70.59;97512.16;1722810;83;21167;-82
2021/03/07 01:42:35;;;;;;;15.32;8.30;;;;;;;-3.67;70.58;97516.69;1719793;82;21183;-83
2021/03/07 01:45:04;;;;;;;11.33;6.45;;;;;;;-3.64;70.41;97512.01;1724893;82;21537;-83
2021/03/07 01:47:33;;;;;;;14.30;7.97;;;;;;;-3.64;70.50;97502.94;1716427;82;21136;-82
2021/03/07 01:50:02;;;;;;;15.30;9.73;;;;;;;-3.62;70.43;97494.99;1718863;82;21209;-82
2021/03/07 01:52:29;;;;;;;8.65;5.05;;;;;;;-3.64;70.37;97510.70;1717233;83;21143;-83
2021/03/07 01:54:56;;;;;;;12.85;6.30;;;;;;;-3.64;70.31;97495.16;1708410;82;21512;-82
2021/03/07 01:57:26;;;;;;;9.00;4.67;;;;;;;-3.60;70.19;97497.73;1721653;83;21115;-83
2021/03/07 01:59:57;;;;;;;9.50;6.37;;;;;;;-3.62;70.25;97491.91;1725551;82;21120;-83
2021/03/07 02:02:24;;;;;;;10.43;6.25;;;;;;;-3.62;70.04;97493.20;1729624;82;21135;-83
2021/03/07 02:04:53;;;;;;;10.50;5.08;;;;;;;-3.60;69.80;97491.74;1718095;82;21147;-83
2021/03/07 02:07:20;;;;;;;15.35;7.37;;;;;;;-3.58;70.03;97485.90;1718085;82;21148;-83
2021/03/07 02:09:50;;;;;;;8.85;5.12;;;;;;;-3.58;69.87;97491.08;1726170;82;21124;-83
2021/03/07 02:12:21;;;;;;;8.90;4.97;;;;;;;-3.58;69.79;97482.02;1716321;82;21556;-83
2021/03/07 02:14:51;;;;;;;13.55;5.80;;;;;;;-3.55;69.60;97457.54;1719733;82;21541;-83
2021/03/07 02:17:21;;;;;;;8.65;5.53;;;;;;;-3.57;69.62;97466.78;1739270;82;21138;-83
2021/03/07 02:19:51;;;;;;;9.78;5.53;;;;;;;-3.60;69.49;97469.23;1732442;82;21131;-82
2021/03/07 02:22:33;;;;;;;12.10;7.33;;;;;;;-3.59;69.56;97468.25;1718421;83;21542;-82
2021/03/07 02:25:00;;;;;;;10.68;5.42;;;;;;;-3.63;69.61;97454.02;1692259;83;21143;-83
2021/03/07 02:27:28;;;;;;;8.45;5.28;;;;;;;-3.66;69.84;97463.89;1719318;82;21163;-83
2021/03/07 02:29:55;;;;;;;14.58;7.60;;;;;;;-3.70;69.95;97447.87;1702513;83;21131;-82
2021/03/07 02:32:25;;;;;;;11.83;4.30;;;;;;;-3.70;70.19;97444.48;1727329;82;21167;-82
2021/03/07 02:35:10;;;;;;;8.70;4.85;;;;;;;-3.71;70.37;97443.67;1716865;82;21537;-82
2021/03/07 02:37:41;;;;;;;9.15;6.00;;;;;;;-3.75;70.62;97446.28;1725127;82;21143;-82
2021/03/07 02:40:11;;;;;;;8.88;4.53;;;;;;;-3.73;70.41;97433.97;1720739;83;21496;-83
2021/03/07 02:42:42;;;;;;;11.83;5.03;;;;;;;-3.71;70.45;97437.20;1725481;83;21206;-83
2021/03/07 02:45:17;;;;;;;13.20;6.60;;;;;;;-3.69;70.29;97442.20;1729412;82;21491;-83
2021/03/07 02:47:48;;;;;;;11.70;6.50;;;;;;;-3.69;70.23;97437.83;1718447;83;21516;-83
2021/03/07 02:50:18;;;;;;;;;;;;;;;-3.67;70.16;97433.28;1715027;83;21131;-83
2021/03/07 02:53:00;;;;;;;8.25;5.83;;;;;;;-3.65;70.03;97439.13;1761412;81;20123;-83
2021/03/07 02:55:31;;;;;;;7.40;5.55;;;;;;;-3.62;69.97;97443.97;1743558;81;21152;-83
2021/03/07 02:58:12;;;;;;;11.50;6.00;;;;;;;-3.60;69.88;97436.03;1736732;81;21153;-83
2021/03/07 03:00:51;;;;;;;11.43;6.67;;;;;;;-3.57;69.82;97434.88;1709609;83;21096;-83
2021/03/07 03:03:22;;;;;;;14.65;7.15;;;;;;;-3.57;69.77;97437.47;1731300;82;21123;-83
2021/03/07 03:05:51;;;;;;;6.83;4.28;;;;;;;-3.61;69.66;97444.30;1722567;82;21521;-83
2021/03/07 03:08:18;;;;;;;15.35;6.53;;;;;;;-3.63;69.69;97444.95;1727324;82;21143;-83
2021/03/07 03:10:49;;;;;;;14.03;6.33;;;;;;;-3.64;69.61;97435.56;1711892;82;21521;-83
2021/03/07 03:13:20;;;;;;;9.85;5.33;;;;;;;-3.61;69.63;97437.01;1707269;83;21175;-83
2021/03/07 03:15:47;;;;;;;8.65;5.33;;;;;;;-3.62;69.60;97432.31;1717953;83;21187;-83
2021/03/07 03:18:17;;;;;;;9.80;6.22;;;;;;;-3.64;69.55;97426.50;1704694;83;21128;-83
2021/03/07 03:20:45;;;;;;;11.08;6.67;;;;;;;-3.65;69.52;97423.59;1736174;81;21539;-83
2021/03/07 03:23:14;;;;;;;12.53;6.50;;;;;;;-3.71;69.51;97426.84;1761445;80;21159;-83
2021/03/07 03:25:41;;;;;;;8.43;5.53;;;;;;;-3.75;69.62;97428.16;1766910;80;22174;-83
2021/03/07 03:28:09;;;;;;;11.25;6.40;;;;;;;-3.75;69.83;97426.86;1720699;83;21503;-83
2021/03/07 03:30:36;;;;;;;15.25;6.83;;;;;;;-3.77;69.78;97422.34;1712659;83;21104;-83
2021/03/07 03:33:05;;;;;;;8.25;4.05;;;;;;;-3.79;69.77;97423.00;1709955;82;21167;-83
2021/03/07 03:35:32;;;;;;;12.10;5.62;;;;;;;-3.81;69.89;97419.73;1723660;81;21135;-83
2021/03/07 03:37:59;;;;;;;9.30;5.67;;;;;;;-3.83;69.87;97426.06;1713345;83;21499;-83
2021/03/07 03:40:30;;;;;;;10.63;5.60;;;;;;;-3.82;69.93;97429.78;1711474;83;21101;-83
2021/03/07 03:43:07;;;;;;;10.08;5.20;;;;;;;-3.78;69.83;97434.97;1708687;82;21143;-83
2021/03/07 03:45:40;;;;;;;10.80;5.65;;;;;;;-3.77;69.78;97424.92;1736825;81;21152;-84
2021/03/07 03:48:14;;;;;;;9.90;6.35;;;;;;;-3.77;69.74;97427.52;1740981;81;21154;-83
2021/03/07 03:50:44;;;;;;;12.23;5.78;;;;;;;-3.75;69.77;97422.97;1711504;84;21097;-84
2021/03/07 03:53:16;;;;;;;10.30;5.73;;;;;;;-3.74;69.66;97423.29;1692381;84;21130;-84
2021/03/07 03:55:50;;;;;;;16.00;5.83;;;;;;;-3.74;69.67;97426.38;1716671;83;21147;-84
2021/03/07 03:58:21;;;;;;;10.82;5.37;;;;;;;-3.75;69.62;97428.16;1699518;83;21145;-84
2021/03/07 04:00:51;;;;;;;12.85;6.10;;;;;;;-3.75;69.57;97422.97;1699339;83;21116;-84
2021/03/07 04:03:20;;;;;;;10.60;5.33;;;;;;;-3.75;69.59;97428.16;1712357;82;21155;-84
2021/03/07 04:05:50;;;;;;;10.63;6.50;;;;;;;-3.74;69.56;97420.70;1725908;82;21123;-84
2021/03/07 04:08:20;;;;;;;9.43;5.30;;;;;;;-3.74;69.49;97411.63;1720131;82;21551;-83
2021/03/07 04:10:51;;;;;;;8.48;4.50;;;;;;;-3.76;69.52;97405.81;1718977;82;21601;-84
2021/03/07 04:13:22;;;;;;;11.80;6.58;;;;;;;-3.77;69.58;97411.97;1714471;82;21484;-84
2021/03/07 04:15:51;;;;;;;7.62;4.95;;;;;;;-3.80;69.60;97418.80;1709075;82;21147;-84
2021/03/07 04:18:25;;;;;;;9.48;5.17;;;;;;;-3.81;69.68;97410.67;1709337;82;21195;-83
2021/03/07 04:20:54;;;;;;;11.48;6.30;;;;;;;-3.81;69.70;97415.85;1694799;82;21508;-84
2021/03/07 04:23:21;;;;;;;9.33;5.40;;;;;;;-3.82;69.71;97407.77;1683224;84;21180;-84
2021/03/07 04:25:49;;;;;;;12.15;7.25;;;;;;;-3.83;69.72;97407.45;1712403;82;21545;-84
2021/03/07 04:28:17;;;;;;;4.40;3.00;;;;;;;-3.87;69.68;97406.17;1704595;83;21144;-83
2021/03/07 04:30:44;;;;;;;14.58;6.90;;;;;;;-3.90;69.83;97402.14;1692852;82;21492;-83
2021/03/07 04:33:12;;;;;;;8.75;5.22;;;;;;;-3.94;69.79;97395.69;1700520;83;21198;-84
2021/03/07 04:35:40;;;;;;;10.08;5.40;;;;;;;-3.96;69.93;97402.80;1691601;83;21136;-84
2021/03/07 04:38:08;;;;;;;11.63;6.40;;;;;;;-3.98;69.99;97400.05;1713290;83;21192;-84
2021/03/07 04:40:38;;;;;;;12.50;7.28;;;;;;;-3.97;70.08;97401.67;1702875;83;21152;-84
2021/03/07 04:43:07;;;;;;;11.00;6.22;;;;;;;-4.01;70.11;97404.28;1707080;83;21148;-84
2021/03/07 04:45:35;;;;;;;14.38;6.55;;;;;;;-4.03;70.12;97402.35;1712488;83;21099;-84
2021/03/07 04:48:03;;;;;;;11.55;6.90;;;;;;;-4.08;70.34;97404.16;1706487;83;21140;-84
2021/03/07 04:50:30;;;;;;;11.25;6.85;;;;;;;-4.10;70.31;97400.09;1712832;83;21550;-84
2021/03/07 04:52:57;;;;;;;13.30;6.67;;;;;;;-4.11;70.34;97394.59;1719459;82;21128;-84
2021/03/07 04:55:24;;;;;;;11.08;6.60;;;;;;;-4.16;70.34;97391.70;1702945;82;21112;-84
2021/03/07 04:57:51;;;;;;;13.13;7.37;;;;;;;-4.19;70.51;97374.73;1704492;82;21142;-84
2021/03/07 05:00:20;;;;;;;11.18;7.10;;;;;;;-4.19;70.60;97388.48;1701509;82;21517;-84
2021/03/07 05:02:47;;;;;;;7.80;4.67;;;;;;;-4.19;70.68;97377.31;1712386;83;21159;-84
2021/03/07 05:05:14;;;;;;;10.15;5.22;;;;;;;-4.17;70.74;97375.86;1713452;82;21158;-84
2021/03/07 05:07:41;;;;;;;13.03;7.47;;;;;;;-4.20;70.93;97379.59;1705874;83;21191;-84
2021/03/07 05:10:10;;;;;;;10.20;5.67;;;;;;;-4.22;70.90;97378.46;1709017;83;21097;-84
2021/03/07 05:12:38;;;;;;;11.28;5.58;;;;;;;-4.21;70.96;97365.03;1715734;83;21144;-84
2021/03/07 05:15:08;;;;;;;11.97;8.03;;;;;;;-4.22;71.01;97362.93;1719648;82;21134;-84
2021/03/07 05:17:36;;;;;;;11.15;6.33;;;;;;;-4.22;70.94;97355.16;1686509;83;21163;-83
2021/03/07 05:20:05;;;;;;;7.83;4.97;;;;;;;-4.23;71.01;97356.11;1709221;82;21150;-84
2021/03/07 05:22:35;;;;;;;11.57;7.50;;;;;;;-4.22;71.14;97359.05;1707446;83;21155;-84
2021/03/07 05:25:13;;;;;;;12.43;6.62;;;;;;;-4.21;71.13;97349.50;1713208;82;21139;-86
2021/03/07 05:27:57;;;;;;;11.20;6.53;;;;;;;-4.19;71.13;97350.14;1697139;82;21176;-86
2021/03/07 05:30:27;;;;;;;11.40;6.40;;;;;;;-4.14;71.13;97345.74;1686349;83;21124;-85
2021/03/07 05:32:59;;;;;;;11.08;6.17;;;;;;;-4.06;71.06;97331.48;1706718;82;21191;-85
2021/03/07 05:35:26;;;;;;;9.83;5.80;;;;;;;-3.98;71.03;97328.84;1702508;82;21174;-85
2021/03/07 05:37:53;;;;;;;12.88;7.10;;;;;;;-3.89;70.87;97330.42;1710609;83;21195;-86
2021/03/07 05:40:21;;;;;;;10.40;5.75;;;;;;;-3.77;70.73;97325.19;1718528;83;21151;-83
2021/03/07 05:42:51;;;;;;;11.30;5.75;;;;;;;-3.67;70.54;97332.72;1710176;82;21562;-84
2021/03/07 05:45:18;;;;;;;;;;;;;;;-3.52;70.37;97322.44;1717636;83;21167;-83
2021/03/07 05:47:45;;;;;;;13.38;7.12;;;;;;;-3.36;69.93;97324.94;1705920;83;20173;-83
2021/03/07 05:50:13;;;;;;;9.85;6.05;;;;;;;-3.19;69.67;97322.55;1713186;83;21592;-83
2021/03/07 05:52:40;;;;;;;12.88;6.50;;;;;;;-2.97;69.20;97314.41;1714549;83;21166;-83
2021/03/07 05:55:10;;;;;;;9.98;5.47;;;;;;;-2.84;68.89;97314.61;1681847;83;21194;-83
2021/03/07 05:57:38;;;;;;;9.90;6.33;;;;;;;-2.64;68.49;97320.13;1717085;83;21104;-84
2021/03/07 06:00:07;;;;;;;11.50;6.22;;;;;;;-2.50;67.62;97323.23;1716363;83;21238;-84
2021/03/07 06:02:35;;;;;;;11.88;7.05;;;;;;;-2.29;67.32;97315.20;1716578;82;21157;-84
2021/03/07 06:05:02;;;;;;;10.20;5.80;;;;;;;-2.13;66.82;97323.61;1707338;83;21538;-84
2021/03/07 06:07:29;;;;;;;9.98;5.92;;;;;;;-2.06;65.98;97328.91;1714560;83;21144;-83
2021/03/07 06:10:13;;;;;;;10.05;6.72;;;;;;;-1.97;65.91;97316.14;1715394;83;21112;-84
2021/03/07 06:12:42;;;;;;;10.63;6.65;;;;;;;-1.62;65.69;97315.83;1713687;82;21159;-83
2021/03/07 06:15:12;;;;;;;12.30;6.67;;;;;;;-1.20;64.53;97311.64;1710011;83;21182;-84
2021/03/07 06:17:47;;;;;;;11.30;6.10;;;;;;;-0.81;63.71;97309.07;1709105;83;21159;-84
2021/03/07 06:20:21;;;;;;;12.63;8.03;;;;;;;-0.51;62.43;97307.88;1715655;83;21568;-84
2021/03/07 06:23:02;;;;;;;12.15;6.47;;;;;;;-0.22;62.48;97308.64;1712218;83;21153;-84
2021/03/07 06:25:33;;;;;;;9.65;5.83;;;;;;;0.27;61.31;97312.35;1708333;82;21136;-84
2021/03/07 06:28:01;;;;;;;9.88;6.53;;;;;;;0.92;60.24;97304.38;1715801;83;21141;-84
2021/03/07 06:30:31;;;;;;;11.93;7.45;;;;;;;1.37;59.25;97301.95;1718671;83;21105;-84
2021/03/07 06:33:01;;;;;;;10.88;6.92;;;;;;;1.63;59.39;97302.43;1718425;82;21143;-84
2021/03/07 06:35:32;;;;;;;11.83;7.17;;;;;;;1.76;57.95;97296.67;1720179;82;21127;-84
2021/03/07 06:38:09;;;;;;;14.35;7.47;;;;;;;1.68;56.73;97302.10;1713147;83;21145;-84
2021/03/07 06:40:44;;;;;;;12.45;7.85;;;;;;;1.79;57.02;97285.80;1721663;82;21495;-84
2021/03/07 06:43:27;;;;;;;11.38;7.15;;;;;;;1.83;55.51;97287.99;1713033;82;21139;-84
2021/03/07 06:45:55;;;;;;;10.55;6.20;;;;;;;1.88;56.25;97296.84;1708730;82;21182;-84
2021/03/07 06:48:35;;;;;;;9.48;6.87;;;;;;;2.41;55.96;97284.86;1716937;83;21197;-84
2021/03/07 06:51:02;;;;;;;11.03;6.85;;;;;;;2.61;54.43;97288.66;1720157;82;21197;-84
2021/03/07 06:53:37;;;;;;;10.82;6.37;;;;;;;2.75;54.43;97287.56;1715536;83;21127;-84
2021/03/07 06:56:06;;;;;;;9.43;6.35;;;;;;;2.98;52.88;97285.20;1708283;83;21529;-84
2021/03/07 06:58:35;;;;;;;9.50;6.17;;;;;;;3.09;52.11;97282.88;1717496;82;21129;-84
2021/03/07 07:01:02;;;;;;;11.33;6.62;;;;;;;3.22;50.58;97276.22;1709122;82;21189;-84
2021/03/07 07:03:31;;;;;;;10.10;5.37;;;;;;;3.41;51.64;97274.47;1711914;82;21198;-84
2021/03/07 07:05:59;;;;;;;11.30;6.92;;;;;;;3.44;48.87;97264.85;1716367;82;21112;-85
2021/03/07 07:08:47;;;;;;;9.63;6.35;;;;;;;3.90;50.13;97269.61;1714454;82;21195;-83
2021/03/07 07:11:14;;;;;;;11.50;7.15;;;;;;;4.52;48.35;97261.07;1716556;82;21137;-84
2021/03/07 07:13:47;;;;;;;8.03;6.22;;;;;;;4.61;47.68;97268.10;1713025;83;21131;-84
2021/03/07 07:16:16;;;;;;;10.13;6.33;;;;;;;4.65;46.95;97260.89;1708775;83;21092;-84
2021/03/07 07:18:48;;;;;;;10.45;6.22;;;;;;;4.96;47.41;97259.01;1707806;83;21155;-83
2021/03/07 07:21:18;;;;;;;6.97;5.25;;;;;;;5.29;45.58;97261.89;1705451;83;21182;-83
2021/03/07 07:23:47;;;;;;;8.75;6.35;;;;;;;4.64;44.77;97268.45;1716095;82;21510;-83
2021/03/07 07:26:15;;;;;;;11.12;5.85;;;;;;;4.94;45.26;97262.38;1706099;83;21149;-83
2021/03/07 07:28:42;;;;;;;9.15;5.90;;;;;;;4.98;44.59;97259.58;1711804;83;21122;-83
2021/03/07 07:31:29;;;;;;;8.63;5.45;;;;;;;4.92;45.36;97263.09;1704623;83;21182;-83
2021/03/07 07:34:11;;;;;;;8.75;5.75;;;;;;;5.38;44.26;97253.67;1709804;83;21116;-83
2021/03/07 07:36:51;;;;;;;8.53;6.50;;;;;;;5.25;44.06;97260.75;1702376;82;21192;-84
2021/03/07 07:39:36;;;;;;;9.78;5.42;;;;;;;5.33;43.32;97259.08;1709332;83;21151;-84
2021/03/07 07:42:26;;;;;;;10.70;6.40;;;;;;;5.18;42.77;97253.99;1712408;83;21122;-83
2021/03/07 07:44:56;;;;;;;9.60;6.53;;;;;;;5.67;42.67;97242.22;1708866;82;21149;-83
2021/03/07 07:47:23;;;;;;;7.62;5.28;;;;;;;6.08;43.11;97241.25;1711523;82;21142;-83
2021/03/07 07:49:54;;;;;;;8.95;5.83;;;;;;;6.11;40.75;97238.66;1716087;83;21138;-83
2021/03/07 07:52:33;;;;;;;9.03;5.70;;;;;;;5.64;41.97;97232.16;1714351;82;21174;-83
2021/03/07 07:55:07;;;;;;;9.00;6.17;;;;;;;5.82;42.24;97232.01;1718375;82;21147;-83
2021/03/07 07:57:41;;;;;;;7.05;5.42;;;;;;;5.97;43.74;97234.17;1707054;83;21147;-83
2021/03/07 08:00:19;;;;;;;9.83;7.05;;;;;;;6.27;40.99;97217.36;1718788;83;21137;-83
2021/03/07 08:02:56;;;;;;;9.90;6.78;;;;;;;6.14;41.73;97223.19;1710099;83;21123;-83
2021/03/07 08:05:29;;;;;;;10.25;6.30;;;;;;;6.17;41.71;97217.97;1717297;83;21179;-83
2021/03/07 08:08:12;;;;;;;8.80;5.97;;;;;;;6.80;43.18;97214.34;1712080;83;21132;-83
2021/03/07 08:10:46;;;;;;;9.48;6.05;;;;;;;7.24;41.38;97211.86;1726642;81;21172;-83
2021/03/07 08:13:31;;;;;;;9.63;6.25;;;;;;;7.12;40.22;97214.05;1711993;83;21158;-83
2021/03/07 08:16:00;;;;;;;10.65;7.00;;;;;;;7.04;40.26;97199.18;1716660;83;21164;-83
2021/03/07 08:18:49;;;;;;;9.90;6.58;;;;;;;6.87;40.43;97203.11;1767715;80;21285;-85
2021/03/07 08:21:20;;;;;;;9.45;6.40;;;;;;;6.94;39.84;97191.11;1767449;80;21329;-84
2021/03/07 08:24:04;;;;;;;6.17;3.77;;;;;;;6.54;40.39;97203.37;1718942;82;21619;-85
2021/03/07 08:26:49;;;;;;;9.00;6.40;;;;;;;6.36;39.78;97199.64;1711760;83;21581;-85
2021/03/07 08:32:33;;;;;;;10.58;5.65;;;;;;;6.32;41.15;97184.02;1859405;75;23040;-84
2021/03/07 08:38:14;;;;;;;8.40;6.05;;;;;;;6.17;41.20;97161.37;1867060;76;23411;-85
2021/03/07 08:40:45;;;;;;;8.45;4.53;;;;;;;6.28;42.42;97180.27;1819365;77;21139;-85
2021/03/07 08:43:29;;;;;;;6.17;3.98;;;;;;;6.71;41.02;97167.02;1807296;77;21116;-83
2021/03/07 08:46:12;;;;;;;7.10;5.35;;;;;;;6.50;40.72;97171.97;1837361;77;21064;-83
2021/03/07 08:48:44;;;;;;;9.15;5.37;;;;;;;6.62;42.52;97179.02;1837083;77;21523;-83
2021/03/07 08:51:15;;;;;;;6.00;4.05;;;;;;;6.44;41.13;97179.48;1828219;77;21557;-83
2021/03/07 08:53:45;;;;;;;8.58;5.17;;;;;;;6.13;40.99;97165.52;1834870;77;21131;-84
2021/03/07 08:56:14;;;;;;;10.32;5.65;;;;;;;5.71;41.72;97156.53;1834475;77;21510;-82
2021/03/07 08:58:47;;;;;;;7.72;4.47;;;;;;;5.73;43.20;97164.99;1848037;77;21078;-82
2021/03/07 09:01:15;;;;;;;7.67;4.78;;;;;;;5.41;42.89;97151.98;1841594;77;21148;-82
2021/03/07 09:03:42;;;;;;;10.18;6.28;;;;;;;4.80;43.52;97152.77;1839677;77;21056;-81
2021/03/07 09:06:11;;;;;;;9.30;6.25;;;;;;;4.44;45.25;97155.85;1841493;77;21123;-82
2021/03/07 09:08:39;;;;;;;5.75;4.17;;;;;;;4.47;46.02;97154.08;1848942;77;21103;-83
2021/03/07 09:11:09;;;;;;;8.93;5.65;;;;;;;4.18;46.63;97147.85;1843576;77;21212;-82
2021/03/07 09:13:49;;;;;;;6.55;4.67;;;;;;;3.80;47.21;97146.05;1833441;77;21169;-83
2021/03/07 09:16:19;;;;;;;8.33;5.03;;;;;;;3.71;47.71;97143.46;1839134;77;21142;-84
2021/03/07 09:18:49;;;;;;;6.75;4.20;;;;;;;3.49;48.43;97137.36;1847827;77;21665;-83
2021/03/07 09:21:19;;;;;;;6.67;4.53;;;;;;;3.36;48.37;97131.47;1832025;77;21565;-82
2021/03/07 09:23:50;;;;;;;8.25;4.60;;;;;;;3.36;49.33;97132.27;1828394;77;21154;-82
2021/03/07 09:26:23;;;;;;;8.28;4.97;;;;;;;3.29;49.59;97130.25;1781503;78;21116;-82
2021/03/07 09:28:55;;;;;;;7.25;5.70;;;;;;;3.37;49.79;97122.08;1766797;80;21143;-82
2021/03/07 09:31:36;;;;;;;8.55;4.72;;;;;;;3.29;50.12;97125.00;1763915;80;21144;-82
2021/03/07 09:34:11;;;;;;;10.13;5.40;;;;;;;3.23;49.63;97116.69;1759379;80;21296;-82
2021/03/07 09:36:46;;;;;;;7.87;4.97;;;;;;;3.20;50.39;97114.01;1767000;79;21175;-81
2021/03/07 09:39:15;;;;;;;14.28;8.85;;;;;;;3.15;50.57;97107.83;1766291;79;21174;-82
2021/03/07 09:41:46;;;;;;;8.65;4.75;;;;;;;3.19;51.32;97102.44;1772779;79;21166;-82
2021/03/07 09:44:21;;;;;;;10.90;5.25;;;;;;;3.32;50.30;97095.73;1769946;79;21215;-82
2021/03/07 09:46:52;;;;;;;22.77;11.43;;;;;;;3.34;50.18;97085.83;1764889;80;21213;-82
2021/03/07 09:49:24;;;;;;;8.73;5.75;;;;;;;3.43;50.96;97087.14;1763145;80;21128;-82
2021/03/07 09:51:52;;;;;;;7.55;4.78;;;;;;;3.66;50.33;97079.08;1767649;79;21151;-83
2021/03/07 09:54:21;;;;;;;15.65;7.17;;;;;;;3.68;48.59;97082.30;1768397;79;21142;-82
2021/03/07 09:56:52;;;;;;;5.33;3.55;;;;;;;3.60;47.97;97057.17;1763270;79;21181;-82
2021/03/07 09:59:31;;;;;;;12.07;5.53;;;;;;;3.51;48.80;97069.78;1764044;80;21135;-82
2021/03/07 10:02:02;;;;;;;10.08;5.37;;;;;;;3.50;48.90;97035.94;1786428;79;21176;-82
2021/03/07 10:04:50;;;;;;;7.17;3.52;;;;;;;3.49;48.06;97068.41;1771962;80;21087;-82
2021/03/07 10:07:21;;;;;;;10.32;7.12;;;;;;;3.58;47.39;97049.54;1784100;79;21171;-82
2021/03/07 10:10:11;;;;;;;8.23;3.90;;;;;;;3.53;47.30;97054.66;1769159;80;21087;-82
2021/03/07 10:12:46;;;;;;;8.50;4.85;;;;;;;3.49;47.29;97058.73;1766175;80;21158;-82
2021/03/07 10:15:37;;;;;;;4.67;3.42;;;;;;;3.52;46.97;97041.78;1768100;80;22133;-82
2021/03/07 10:18:16;;;;;;;5.67;4.15;;;;;;;3.52;46.76;97045.71;1780025;79;21154;-81
2021/03/07 10:20:50;;;;;;;5.00;3.40;;;;;;;3.60;47.44;97047.20;1762210;80;21070;-82
2021/03/07 10:23:19;;;;;;;10.60;6.47;;;;;;;3.77;48.01;97050.78;1768932;80;21479;-82
2021/03/07 10:25:49;;;;;;;7.67;3.90;;;;;;;3.97;47.26;97037.40;1775068;80;21134;-83
2021/03/07 10:28:35;;;;;;;7.67;4.15;;;;;;;3.91;46.93;97035.66;1774745;80;21155;-82
2021/03/07 10:31:11;;;;;;;6.45;4.08;;;;;;;3.87;46.61;97025.62;1771761;80;21166;-82
2021/03/07 10:33:40;;;;;;;7.55;4.28;;;;;;;3.95;47.41;97019.27;1772621;80;21177;-82
2021/03/07 10:36:12;;;;;;;7.72;4.67;;;;;;;4.03;46.63;97025.48;1770430;80;21111;-83
2021/03/07 10:39:10;;;;;;;5.80;3.25;;;;;;;3.93;45.66;97017.35;1793551;80;21184;-82
2021/03/07 10:41:39;;;;;;;5.62;3.67;;;;;;;3.94;45.97;97004.55;1770755;80;21206;-83
2021/03/07 10:44:09;;;;;;;5.00;3.75;;;;;;;3.93;46.66;97024.42;1778047;80;21405;-83
2021/03/07 10:46:40;;;;;;;5.65;3.33;;;;;;;4.01;45.99;97002.61;1770343;80;21171;-83
2021/03/07 10:49:10;;;;;;;6.62;3.45;;;;;;;4.01;45.36;96999.19;1760261;80;21079;-83
2021/03/07 10:51:39;;;;;;;6.97;3.10;;;;;;;4.00;45.44;96986.59;1763878;80;21155;-83
2021/03/07 10:54:08;;;;;;;7.17;3.37;;;;;;;3.99;44.61;97009.11;1763060;80;21175;-83
2021/03/07 10:56:38;;;;;;;4.08;2.77;;;;;;;3.94;45.00;96995.38;1793962;78;21514;-84
2021/03/07 10:59:06;;;;;;;4.55;2.52;;;;;;;3.97;45.59;97008.03;1765169;80;21159;-83
2021/03/07 11:01:34;;;;;;;5.20;2.85;;;;;;;4.05;44.73;96989.31;1774991;80;21458;-83
2021/03/07 11:04:03;;;;;;;4.33;3.25;;;;;;;4.05;45.12;96973.58;1771867;80;21564;-84
2021/03/07 11:06:30;;;;;;;3.67;2.58;;;;;;;4.06;45.49;97000.61;1797325;80;21564;-83
2021/03/07 11:08:59;;;;;;;5.12;3.17;;;;;;;4.09;45.61;96979.19;1773645;80;21158;-86
2021/03/07 11:11:26;;;;;;;3.72;2.58;;;;;;;4.21;46.41;96981.28;1795662;78;21134;-86
2021/03/07 11:13:55;;;;;;;4.30;2.90;;;;;;;4.33;45.80;96951.89;1750938;80;21148;-84
2021/03/07 11:16:22;;;;;;;2.98;2.00;;;;;;;4.27;44.06;96948.09;1757956;80;21497;-85
2021/03/07 11:18:49;;;;;;;5.37;2.80;;;;;;;4.20;43.56;96942.15;1755913;80;21113;-85
2021/03/07 11:21:17;;;;;;;3.75;2.47;;;;;;;4.19;43.50;96961.03;1756118;80;21657;-84
2021/03/07 11:23:43;;;;;;;5.15;3.02;;;;;;;4.24;44.64;96955.13;1775216;79;21129;-85
2021/03/07 11:26:10;;;;;;;4.62;3.05;;;;;;;4.34;44.41;96942.20;1783969;80;21128;-85
2021/03/07 11:28:37;;;;;;;6.53;2.98;;;;;;;4.43;43.91;96935.58;1793955;79;21139;-83
2021/03/07 11:31:06;;;;;;;3.67;2.37;;;;;;;4.49;43.23;96929.39;1771617;79;21150;-84
2021/03/07 11:33:34;;;;;;;3.65;2.77;;;;;;;4.43;42.79;96916.69;1776170;79;21558;-83
2021/03/07 11:36:01;;;;;;;3.17;2.02;;;;;;;4.42;43.44;96931.36;1774191;79;21175;-83
2021/03/07 11:38:27;;;;;;;4.08;2.27;;;;;;;4.52;43.71;96926.33;1786156;79;21202;-83
2021/03/07 11:40:54;;;;;;;5.58;3.60;;;;;;;4.66;43.64;96927.66;1779465;79;21575;-82
2021/03/07 11:43:21;;;;;;;3.90;2.67;;;;;;;4.81;43.66;96921.11;1782772;80;21140;-83
2021/03/07 11:45:48;;;;;;;3.22;2.00;;;;;;;4.85;43.56;96907.78;1796415;80;21153;-83
2021/03/07 11:48:15;;;;;;;3.58;2.27;;;;;;;4.81;43.17;96914.55;1800216;79;21090;-81
2021/03/07 11:50:42;;;;;;;4.53;2.62;;;;;;;4.84;42.68;96907.51;1786559;80;21490;-82
2021/03/07 11:53:09;;;;;;;4.50;3.02;;;;;;;4.90;41.71;96896.05;1765023;80;21558;-83
2021/03/07 11:55:36;;;;;;;7.22;4.83;;;;;;;4.87;42.49;96903.09;1770162;80;21185;-83
2021/03/07 11:58:03;;;;;;;13.22;5.65;;;;;;;4.86;42.93;96901.50;1782320;80;21092;-83